New Haven, CT (06501)

3:44 AM EDT on July 27, 2016 (GMT -0400)
SCSU | | Change Station

Elev 72 ft 41.33 °N, 72.95 °W | Updated 31 seconds ago

Clear
Clear
69.1 °F
Feels Like 69.1 °F
N
2.4
Wind Variable Wind from West

Today
High -- | Low -- °F
--% Chance of Precip.
Yesterday
High -- | Low -- °F
Precip. -- in
Pressure 29.92 in
Visibility 10.0 miles
Clouds Clear
Dew Point 60 °F
Humidity 73%
Rainfall Not available.
Snow Depth Not available.
5:42 AM 8:13 PM
Last Quarter, 46% visible
METAR KHVN 270653Z AUTO 01005KT 10SM CLR 21/17 A2992 RMK AO2 SLP132 T02110167 $
Pressure 29.92 in
Visibility 10.0 miles
Clouds Clear
Dew Point 60 °F
Humidity 73%
Rainfall Not available.
Snow Depth Not available.
5:42 AM 8:13 PM
Last Quarter, 46% visible
METAR KHVN 270653Z AUTO 01005KT 10SM CLR 21/17 A2992 RMK AO2 SLP132 T02110167 $

10-Day Weather Forecast

Almanac

Astronomy

Jul. 27, 2016 Rise Set
Actual Time
Civil Twilight
Nautical Twilight
Astronomical Twilight
Moon
Length of Visible Light
Length of Day
Tomorrow will be .
, % of the Moon is Illuminated

Today's Extremes

State Highs State Lows

Community

WunderPhotos

Upload Photos

1,927,818 photos uploaded!

WunderBlog® & News

Nearby

Air Quality

  Air Quality AQ Index Pollutant
Not available.

Snow Depth

Station Depth Elevation

Earthquake Activity

City Distance Mag. Time & Date
Minimum magnitude displayed is 2.5.

Coastal Water Temperatures

Place Temperature

Stations

Nearby Weather Stations

Station Location Temp. Windchill Dew Point Humidity Wind Precip. Elev Updated Type
                   

Watches & Warnings

There are currently no watches in effect.